Time;durP1;ratioP1;P1;durP2;ratioP2;P2;SDS_P1;SDS_P2;PMS_P1;PMS_P2;Temp;Humidity;BMP_temperature;BMP_pressure;BME280_temperature;BME280_humidity;BME280_pressure;Samples;Min_cycle;Max_cycle;Signal;HPM_P1;HPM_P2
2021/04/09 00:00:00;;;;;;;10.82;6.47;;;5.40;69.80;;;;;;5093485;28;20036;-77
2021/04/09 00:02:28;;;;;;;14.82;7.00;;;5.40;69.90;;;;;;5078952;28;20472;-77
2021/04/09 00:04:54;;;;;;;13.63;6.93;;;5.40;69.90;;;;;;5097056;28;20028;-77
2021/04/09 00:07:20;;;;;;;10.48;6.65;;;5.40;70.00;;;;;;5097309;28;20032;-77
2021/04/09 00:09:46;;;;;;;12.15;6.97;;;5.40;70.10;;;;;;5079367;28;20488;-77
2021/04/09 00:12:12;;;;;;;13.00;6.65;;;5.40;70.20;;;;;;5079193;28;20078;-77
2021/04/09 00:14:37;;;;;;;13.50;6.82;;;5.30;70.20;;;;;;5079031;28;20081;-77
2021/04/09 00:17:05;;;;;;;9.43;6.57;;;5.30;70.30;;;;;;5079550;28;20050;-78
2021/04/09 00:19:31;;;;;;;17.05;7.03;;;5.30;70.40;;;;;;5078761;28;20480;-78
2021/04/09 00:21:57;;;;;;;16.98;7.82;;;5.30;70.40;;;;;;5096967;28;20013;-77
2021/04/09 00:24:22;;;;;;;14.10;7.45;;;5.30;70.50;;;;;;5097053;28;20107;-77
2021/04/09 00:26:48;;;;;;;17.27;8.43;;;5.30;70.50;;;;;;5096902;28;20546;-77
2021/04/09 00:29:14;;;;;;;15.50;7.30;;;5.30;70.50;;;;;;5096872;28;20380;-78
2021/04/09 00:31:39;;;;;;;14.32;7.13;;;5.30;70.60;;;;;;5097360;28;20059;-77
2021/04/09 00:34:06;;;;;;;13.35;7.07;;;5.20;70.70;;;;;;5097264;28;20024;-77
2021/04/09 00:36:36;;;;;;;13.85;7.53;;;5.20;70.80;;;;;;5063195;28;20055;-77
2021/04/09 00:39:03;;;;;;;12.32;7.22;;;5.30;71.10;;;;;;5106180;28;20039;-77
2021/04/09 00:41:29;;;;;;;14.50;6.82;;;5.20;71.00;;;;;;5102626;28;20040;-78
2021/04/09 00:43:55;;;;;;;16.05;7.30;;;5.20;71.10;;;;;;5095936;28;20032;-78
2021/04/09 00:46:21;;;;;;;15.52;7.00;;;5.20;71.30;;;;;;5095916;28;20031;-78
2021/04/09 00:48:47;;;;;;;12.63;7.65;;;5.20;71.30;;;;;;5096418;28;20028;-77
2021/04/09 00:51:13;;;;;;;13.85;6.72;;;5.20;71.50;;;;;;5078232;28;20101;-77
2021/04/09 00:53:42;;;;;;;12.50;6.75;;;5.10;71.50;;;;;;5078175;28;20028;-77
2021/04/09 00:56:10;;;;;;;9.93;6.50;;;5.20;71.60;;;;;;5078295;28;20473;-77
2021/04/09 00:58:36;;;;;;;11.43;6.78;;;5.20;71.60;;;;;;5078294;28;20040;-78
2021/04/09 01:01:02;;;;;;;10.40;6.05;;;5.10;71.60;;;;;;5077938;28;20040;-78
2021/04/09 01:03:28;;;;;;;14.07;6.32;;;5.10;71.50;;;;;;5095809;28;20615;-78
2021/04/09 01:05:54;;;;;;;16.25;6.50;;;5.10;71.60;;;;;;5078537;28;20059;-78
2021/04/09 01:08:20;;;;;;;12.90;6.82;;;5.10;71.60;;;;;;5096098;28;20028;-78
2021/04/09 01:10:46;;;;;;;15.45;7.03;;;5.20;71.60;;;;;;5060820;28;20029;-77
2021/04/09 01:13:11;;;;;;;14.10;6.25;;;5.20;71.60;;;;;;5077237;28;20102;-77
2021/04/09 01:15:37;;;;;;;12.05;6.43;;;5.20;71.60;;;;;;5096020;28;20055;-77
2021/04/09 01:18:09;;;;;;;14.15;6.70;;;5.20;71.60;;;;;;5078189;28;20028;-77
2021/04/09 01:20:42;;;;;;;16.42;6.70;;;5.20;71.60;;;;;;5077563;28;20040;-78
2021/04/09 01:23:14;;;;;;;15.90;6.90;;;5.20;71.60;;;;;;5075866;28;20020;-77
2021/04/09 01:26:17;;;;;;;12.20;6.18;;;5.20;71.70;;;;;;5095017;28;20103;-77
2021/04/09 01:29:20;;;;;;;10.93;5.85;;;5.20;71.90;;;;;;5077563;28;20043;-77
2021/04/09 01:31:57;;;;;;;14.63;6.43;;;5.10;71.90;;;;;;5077834;28;20020;-77
2021/04/09 01:34:27;;;;;;;12.88;6.45;;;5.10;72.00;;;;;;5095478;28;20074;-77
2021/04/09 01:36:56;;;;;;;10.77;6.10;;;5.10;71.90;;;;;;5095926;28;20475;-78
2021/04/09 01:39:29;;;;;;;;;;;5.10;71.90;;;;;;5095916;28;20062;-77
2021/04/09 01:41:56;;;;;;;10.05;6.03;;;5.10;71.80;;;;;;5095415;28;19915;-77
2021/04/09 01:44:26;;;;;;;21.83;6.72;;;5.10;72.60;;;;;;5095513;28;20034;-77
2021/04/09 01:46:55;;;;;;;14.85;6.65;;;5.10;72.00;;;;;;5095396;28;20024;-77
2021/04/09 01:49:23;;;;;;;14.85;6.75;;;5.00;71.90;;;;;;5095701;28;20116;-77
2021/04/09 01:51:50;;;;;;;11.63;6.78;;;5.10;72.00;;;;;;5095441;28;20028;-77
2021/04/09 01:54:17;;;;;;;13.48;6.32;;;5.10;72.10;;;;;;5095026;28;20472;-77
2021/04/09 01:56:44;;;;;;;12.88;6.38;;;5.10;72.10;;;;;;5076893;28;20028;-77
2021/04/09 01:59:12;;;;;;;9.40;5.57;;;5.10;72.20;;;;;;5060280;28;20101;-78
2021/04/09 02:01:38;;;;;;;12.38;6.05;;;5.10;72.10;;;;;;5094858;28;20025;-77
2021/04/09 02:04:04;;;;;;;12.43;6.30;;;5.10;72.00;;;;;;5094702;28;20023;-77
2021/04/09 02:06:31;;;;;;;13.38;6.50;;;5.10;72.00;;;;;;5093804;28;20484;-78
2021/04/09 02:08:58;;;;;;;12.43;6.40;;;5.10;71.90;;;;;;5076042;28;20024;-78
2021/04/09 02:11:23;;;;;;;16.15;6.60;;;5.10;72.00;;;;;;5094553;28;20489;-78
2021/04/09 02:13:51;;;;;;;15.00;6.10;;;5.10;71.90;;;;;;5094405;28;20037;-77
2021/04/09 02:16:18;;;;;;;14.43;6.43;;;5.10;71.90;;;;;;5089253;28;20108;-77
2021/04/09 02:18:44;;;;;;;16.83;7.13;;;5.10;71.90;;;;;;5096568;28;20024;-77
2021/04/09 02:21:10;;;;;;;13.27;6.40;;;5.10;71.90;;;;;;5101356;28;20389;-77
2021/04/09 02:23:36;;;;;;;10.38;6.47;;;5.10;71.90;;;;;;5074226;28;20428;-77
2021/04/09 02:26:03;;;;;;;10.73;6.05;;;5.10;71.80;;;;;;5074527;28;20028;-77
2021/04/09 02:28:29;;;;;;;10.63;6.20;;;5.10;71.90;;;;;;5085614;28;20020;-77
2021/04/09 02:31:03;;;;;;;13.43;6.93;;;5.10;71.90;;;;;;5094711;28;20020;-77
2021/04/09 02:33:36;;;;;;;17.48;6.93;;;5.10;72.00;;;;;;5094618;28;20477;-77
2021/04/09 02:36:12;;;;;;;12.27;6.25;;;5.10;72.10;;;;;;5076379;28;20052;-77
2021/04/09 02:38:39;;;;;;;12.00;6.13;;;5.10;72.20;;;;;;5094179;28;20058;-77
2021/04/09 02:41:06;;;;;;;11.20;6.15;;;5.10;72.20;;;;;;5075643;28;20572;-77
2021/04/09 02:43:32;;;;;;;12.02;6.32;;;5.10;72.10;;;;;;5093975;28;20031;-78
2021/04/09 02:45:58;;;;;;;12.25;6.55;;;5.10;72.20;;;;;;5075880;28;20032;-77
2021/04/09 02:48:33;;;;;;;9.98;6.55;;;5.00;72.10;;;;;;5093359;28;20028;-77
2021/04/09 02:51:01;;;;;;;10.55;6.45;;;5.10;72.30;;;;;;5075633;28;20082;-77
2021/04/09 02:53:32;;;;;;;12.23;6.15;;;5.10;72.40;;;;;;5093804;28;20034;-77
2021/04/09 02:56:02;;;;;;;14.68;6.45;;;5.10;72.40;;;;;;5094107;28;20074;-77
2021/04/09 02:58:29;;;;;;;12.73;6.65;;;5.00;72.40;;;;;;5093751;28;20044;-77
2021/04/09 03:00:55;;;;;;;11.40;6.40;;;5.00;72.30;;;;;;5093888;28;20024;-77
2021/04/09 03:03:21;;;;;;;11.05;6.68;;;5.00;72.40;;;;;;5093853;28;20081;-77
2021/04/09 03:05:51;;;;;;;12.55;6.20;;;5.00;72.40;;;;;;5093745;28;20024;-77
2021/04/09 03:08:17;;;;;;;10.63;6.28;;;5.00;72.30;;;;;;5075646;28;20024;-77
2021/04/09 03:10:44;;;;;;;15.23;6.57;;;5.00;72.30;;;;;;5075664;28;20028;-77
2021/04/09 03:13:09;;;;;;;11.15;6.20;;;5.00;72.40;;;;;;5093762;28;20031;-77
2021/04/09 03:15:43;;;;;;;14.35;6.60;;;5.00;72.50;;;;;;5059069;28;20028;-78
2021/04/09 03:18:11;;;;;;;12.02;6.30;;;5.00;72.60;;;;;;5093885;28;20046;-77
2021/04/09 03:20:38;;;;;;;12.07;6.40;;;5.00;72.70;;;;;;5093547;28;20492;-77
2021/04/09 03:23:04;;;;;;;13.77;6.43;;;5.00;72.70;;;;;;5093409;28;20099;-77
2021/04/09 03:25:30;;;;;;;14.63;7.10;;;5.00;72.70;;;;;;5093849;28;20031;-77
2021/04/09 03:27:56;;;;;;;11.98;6.03;;;4.90;72.70;;;;;;5075287;28;20028;-78
2021/04/09 03:30:25;;;;;;;14.25;6.32;;;4.90;72.80;;;;;;5075774;28;20081;-77
2021/04/09 03:32:51;;;;;;;14.05;7.65;;;4.90;72.70;;;;;;5093282;28;20028;-78
2021/04/09 03:35:18;;;;;;;10.20;6.40;;;4.90;72.70;;;;;;5074461;28;20043;-77
2021/04/09 03:37:44;;;;;;;12.15;6.88;;;4.90;72.70;;;;;;5075378;28;20487;-77
2021/04/09 03:40:11;;;;;;;12.45;6.50;;;4.90;72.80;;;;;;5074784;28;20036;-77
2021/04/09 03:42:37;;;;;;;9.45;6.32;;;4.90;72.90;;;;;;5093246;28;20126;-77
2021/04/09 03:45:05;;;;;;;12.52;7.10;;;4.90;73.00;;;;;;5074915;28;20103;-77
2021/04/09 03:47:31;;;;;;;11.93;6.72;;;4.90;73.20;;;;;;5057699;28;20024;-77
2021/04/09 03:49:56;;;;;;;11.98;6.70;;;4.80;73.30;;;;;;5074893;28;20062;-77
2021/04/09 03:52:22;;;;;;;12.40;6.50;;;4.80;73.40;;;;;;5075242;28;20032;-77
2021/04/09 03:54:48;;;;;;;18.45;6.95;;;4.80;73.40;;;;;;5093218;28;20058;-77
2021/04/09 03:57:14;;;;;;;12.35;7.35;;;4.80;73.40;;;;;;5074276;28;20032;-77
2021/04/09 03:59:39;;;;;;;14.35;6.90;;;4.80;73.50;;;;;;5074191;28;20044;-77
2021/04/09 04:02:05;;;;;;;12.73;7.47;;;4.80;73.60;;;;;;5057910;28;20604;-77
2021/04/09 04:04:31;;;;;;;13.52;7.43;;;4.80;73.60;;;;;;5074714;28;20024;-77
2021/04/09 04:06:56;;;;;;;12.18;7.30;;;4.80;73.80;;;;;;5074737;28;20055;-77
2021/04/09 04:09:22;;;;;;;12.38;6.78;;;4.80;73.80;;;;;;5058503;28;20028;-77
2021/04/09 04:11:48;;;;;;;14.10;7.15;;;4.80;73.80;;;;;;5074950;28;20078;-77
2021/04/09 04:14:13;;;;;;;15.13;7.97;;;4.80;73.80;;;;;;5093245;28;20448;-77
2021/04/09 04:16:39;;;;;;;15.48;8.48;;;4.80;73.80;;;;;;5074999;28;20036;-77
2021/04/09 04:19:05;;;;;;;13.90;7.85;;;4.80;73.90;;;;;;5093004;28;20024;-77
2021/04/09 04:21:30;;;;;;;13.23;7.55;;;4.80;73.90;;;;;;5092979;28;20028;-77
2021/04/09 04:23:56;;;;;;;12.82;7.43;;;4.80;74.20;;;;;;5093163;28;20481;-78
2021/04/09 04:26:22;;;;;;;13.57;7.68;;;4.80;74.20;;;;;;5092491;28;20032;-77
2021/04/09 04:28:51;;;;;;;12.35;7.13;;;4.80;74.20;;;;;;5074813;28;20032;-77
2021/04/09 04:31:16;;;;;;;15.57;7.88;;;4.80;74.40;;;;;;5074906;28;20481;-77
2021/04/09 04:33:42;;;;;;;12.95;7.72;;;4.80;74.50;;;;;;5092843;28;20050;-77
2021/04/09 04:36:08;;;;;;;16.38;8.18;;;4.70;74.40;;;;;;5093619;28;20083;-77
2021/04/09 04:38:34;;;;;;;13.02;7.70;;;4.70;74.50;;;;;;5092804;28;20027;-77
2021/04/09 04:41:00;;;;;;;13.45;7.95;;;4.70;74.50;;;;;;5092605;28;20036;-78
2021/04/09 04:43:26;;;;;;;12.10;6.90;;;4.70;74.50;;;;;;5074902;28;20050;-77
2021/04/09 04:45:52;;;;;;;14.82;7.68;;;4.70;74.50;;;;;;5093922;28;20028;-77
2021/04/09 04:48:18;;;;;;;16.58;7.70;;;4.80;75.20;;;;;;5096795;28;20107;-77
2021/04/09 04:50:44;;;;;;;12.98;7.18;;;4.80;74.60;;;;;;5096233;28;20096;-77
2021/04/09 04:53:10;;;;;;;14.63;7.55;;;4.70;74.50;;;;;;5061681;28;20484;-77
2021/04/09 04:55:35;;;;;;;14.20;7.00;;;4.80;74.50;;;;;;5061260;28;20492;-77
2021/04/09 04:58:01;;;;;;;14.07;7.53;;;4.80;74.60;;;;;;5078360;28;20546;-77
2021/04/09 05:00:27;;;;;;;14.82;7.10;;;4.80;75.20;;;;;;5078461;28;20040;-77
2021/04/09 05:02:53;;;;;;;12.77;6.75;;;4.80;74.50;;;;;;5078269;28;20028;-77
2021/04/09 05:05:19;;;;;;;11.20;7.05;;;4.80;74.40;;;;;;5095951;28;20023;-77
2021/04/09 05:07:44;;;;;;;14.52;7.22;;;4.90;74.40;;;;;;5077956;28;20031;-77
2021/04/09 05:10:11;;;;;;;12.60;6.85;;;4.90;74.20;;;;;;5095956;28;20412;-77
2021/04/09 05:12:37;;;;;;;13.10;6.68;;;4.90;74.20;;;;;;5078225;28;20032;-77
2021/04/09 05:15:04;;;;;;;10.95;6.70;;;4.90;74.00;;;;;;5077668;28;20024;-77
2021/04/09 05:17:29;;;;;;;11.85;6.53;;;4.90;74.00;;;;;;5096117;28;20024;-77
2021/04/09 05:19:55;;;;;;;12.57;6.88;;;5.00;74.10;;;;;;5100062;28;20453;-76
2021/04/09 05:22:21;;;;;;;16.90;6.97;;;5.00;74.00;;;;;;5097362;28;20031;-78
2021/04/09 05:24:50;;;;;;;13.57;6.47;;;5.00;73.90;;;;;;5077204;28;20065;-78
2021/04/09 05:27:16;;;;;;;11.45;6.68;;;5.10;73.80;;;;;;5095816;28;20381;-78
2021/04/09 05:29:42;;;;;;;9.95;6.43;;;5.10;73.80;;;;;;5095546;28;20419;-77
2021/04/09 05:32:09;;;;;;;14.10;6.55;;;5.10;73.70;;;;;;5089096;28;20024;-77
2021/04/09 05:34:35;;;;;;;16.13;6.97;;;5.10;73.70;;;;;;5090827;28;20392;-77
2021/04/09 05:37:01;;;;;;;13.30;6.93;;;5.10;73.60;;;;;;5110495;28;20031;-78
2021/04/09 05:39:27;;;;;;;15.73;8.05;;;5.20;73.60;;;;;;5095302;28;20061;-77
2021/04/09 05:41:53;;;;;;;10.70;6.53;;;5.20;73.50;;;;;;5095750;28;20115;-77
2021/04/09 05:44:19;;;;;;;14.55;6.07;;;5.30;73.50;;;;;;5077567;28;20035;-77
2021/04/09 05:46:44;;;;;;;10.93;7.07;;;5.30;73.30;;;;;;5095505;28;20074;-77
2021/04/09 05:49:10;;;;;;;12.00;6.88;;;5.30;73.30;;;;;;5095454;28;20504;-77
2021/04/09 05:51:36;;;;;;;11.30;6.60;;;5.40;73.20;;;;;;5077855;28;20118;-77
2021/04/09 05:54:02;;;;;;;9.80;6.50;;;5.40;73.10;;;;;;5095137;28;20020;-77
2021/04/09 05:56:28;;;;;;;11.88;6.63;;;5.50;73.10;;;;;;5095458;28;20508;-77
2021/04/09 05:58:54;;;;;;;13.85;6.47;;;5.50;73.00;;;;;;5094548;28;20089;-77
2021/04/09 06:01:19;;;;;;;10.77;6.13;;;5.50;72.80;;;;;;5095137;28;20023;-77
2021/04/09 06:03:48;;;;;;;12.68;6.55;;;5.60;72.60;;;;;;5095057;28;20028;-77
2021/04/09 06:06:14;;;;;;;8.43;5.38;;;5.70;72.50;;;;;;5094997;28;20024;-77
2021/04/09 06:08:39;;;;;;;9.35;6.10;;;5.70;72.20;;;;;;5077094;28;20366;-78
2021/04/09 06:11:05;;;;;;;12.38;6.10;;;5.80;72.10;;;;;;5095123;28;20468;-77
2021/04/09 06:13:31;;;;;;;10.32;5.60;;;5.90;72.00;;;;;;5077377;28;20028;-78
2021/04/09 06:15:57;;;;;;;9.85;5.93;;;5.90;72.00;;;;;;5094899;28;20024;-77
2021/04/09 06:18:23;;;;;;;9.52;6.00;;;6.00;72.70;;;;;;5094853;28;20036;-78
2021/04/09 06:20:48;;;;;;;11.18;5.88;;;6.00;71.80;;;;;;5060118;28;20056;-77
2021/04/09 06:23:14;;;;;;;8.93;6.32;;;6.10;71.60;;;;;;5076961;28;20028;-77
2021/04/09 06:25:40;;;;;;;10.48;6.57;;;6.20;71.60;;;;;;5094998;28;20577;-78
2021/04/09 06:28:05;;;;;;;12.77;6.10;;;6.30;71.50;;;;;;5094712;28;20028;-77
2021/04/09 06:30:32;;;;;;;9.32;5.55;;;6.40;71.40;;;;;;5093324;28;20477;-78
2021/04/09 06:32:57;;;;;;;10.55;5.82;;;6.40;71.20;;;;;;5076398;28;20059;-81
2021/04/09 06:35:23;;;;;;;12.50;6.10;;;6.50;71.10;;;;;;5060025;28;20071;-78
2021/04/09 06:37:49;;;;;;;10.98;6.30;;;6.60;71.00;;;;;;5076675;28;20036;-78
2021/04/09 06:40:15;;;;;;;10.20;5.88;;;6.70;70.60;;;;;;5095237;28;20051;-78
2021/04/09 06:42:42;;;;;;;9.43;6.00;;;6.80;70.30;;;;;;5094880;28;20031;-78
2021/04/09 06:45:09;;;;;;;8.27;5.13;;;6.90;70.20;;;;;;5094444;28;20081;-78
2021/04/09 06:47:34;;;;;;;9.45;5.93;;;7.00;70.00;;;;;;5094485;28;20024;-78
2021/04/09 06:50:01;;;;;;;9.35;5.95;;;7.10;69.60;;;;;;5094053;28;20044;-78
2021/04/09 06:52:28;;;;;;;10.25;6.05;;;7.10;70.00;;;;;;5094448;28;20078;-77
2021/04/09 06:54:53;;;;;;;9.10;6.35;;;7.30;68.90;;;;;;5094189;28;20383;-77
2021/04/09 06:57:21;;;;;;;12.43;5.55;;;7.30;68.10;;;;;;5093948;28;20103;-77
2021/04/09 06:59:47;;;;;;;10.48;5.97;;;7.40;68.20;;;;;;5073882;28;20024;-78
2021/04/09 07:02:17;;;;;;;10.40;5.78;;;7.50;68.30;;;;;;5072852;28;20112;-78
2021/04/09 07:04:46;;;;;;;12.23;5.95;;;7.60;68.30;;;;;;5073907;28;20119;-78
2021/04/09 07:07:16;;;;;;;13.00;6.00;;;7.70;68.10;;;;;;5073899;28;20089;-77
2021/04/09 07:09:43;;;;;;;12.50;6.15;;;7.80;67.80;;;;;;5073061;28;20032;-78
2021/04/09 07:12:30;;;;;;;14.07;7.47;;;7.90;67.70;;;;;;5073569;28;20021;-78
2021/04/09 07:15:00;;;;;;;11.48;5.68;;;8.10;67.20;;;;;;5071918;28;20032;-78
2021/04/09 07:17:31;;;;;;;11.45;6.47;;;8.20;66.80;;;;;;5052619;28;20033;-78
2021/04/09 07:20:09;;;;;;;10.93;6.15;;;8.30;66.70;;;;;;5070050;28;20036;-78
2021/04/09 07:22:35;;;;;;;10.82;6.13;;;8.40;66.50;;;;;;5072027;28;20017;-78
2021/04/09 07:25:03;;;;;;;8.52;5.65;;;8.40;66.40;;;;;;5072220;28;20028;-78
2021/04/09 07:27:29;;;;;;;13.50;6.57;;;8.50;66.40;;;;;;5072051;28;20028;-78
2021/04/09 07:29:55;;;;;;;12.38;6.25;;;8.60;66.30;;;;;;5073625;28;20119;-78
2021/04/09 07:32:23;;;;;;;9.75;6.28;;;8.70;66.00;;;;;;5072166;28;20052;-78
2021/04/09 07:34:55;;;;;;;9.38;5.65;;;8.70;65.80;;;;;;5072800;28;20397;-79
2021/04/09 07:37:23;;;;;;;11.10;6.10;;;8.90;65.80;;;;;;5072753;28;20082;-79
2021/04/09 07:40:00;;;;;;;12.05;5.95;;;9.00;65.40;;;;;;5073210;28;20025;-79
2021/04/09 07:42:30;;;;;;;9.52;5.60;;;9.10;65.10;;;;;;5071742;28;20024;-79
2021/04/09 07:45:01;;;;;;;15.70;6.93;;;9.20;64.90;;;;;;5073350;28;20025;-78
2021/04/09 07:47:27;;;;;;;9.25;6.13;;;9.30;64.00;;;;;;5072187;28;20024;-79
2021/04/09 07:50:07;;;;;;;11.20;6.45;;;9.40;64.20;;;;;;5073259;28;20103;-78
2021/04/09 07:52:44;;;;;;;10.88;5.78;;;9.50;64.10;;;;;;5073277;28;20028;-78
2021/04/09 07:55:14;;;;;;;11.57;6.45;;;9.70;63.60;;;;;;5072392;28;20485;-79
2021/04/09 07:57:39;;;;;;;;;;;9.90;63.10;;;;;;5076850;28;20066;-78
2021/04/09 08:00:21;;;;;;;9.30;6.05;;;10.00;62.90;;;;;;5093144;28;19916;-79
2021/04/09 08:02:48;;;;;;;11.60;6.10;;;10.10;62.50;;;;;;5075013;28;20021;-79
2021/04/09 08:05:18;;;;;;;10.32;5.95;;;10.20;62.40;;;;;;5092805;28;20477;-80
2021/04/09 08:07:44;;;;;;;14.77;6.85;;;10.30;62.00;;;;;;5074979;28;20501;-79
2021/04/09 08:10:15;;;;;;;13.23;6.50;;;10.30;61.30;;;;;;5075127;28;20078;-80
2021/04/09 08:12:42;;;;;;;12.15;6.82;;;10.20;61.80;;;;;;5093370;28;20059;-80
2021/04/09 08:15:15;;;;;;;12.50;6.10;;;10.30;62.10;;;;;;5075707;28;20078;-80
2021/04/09 08:17:41;;;;;;;12.43;6.25;;;10.30;62.10;;;;;;5092913;28;20106;-80
2021/04/09 08:20:15;;;;;;;15.10;7.57;;;10.40;61.50;;;;;;5074778;28;20565;-77
2021/04/09 08:22:42;;;;;;;9.77;5.97;;;10.40;61.50;;;;;;5097186;28;20031;-78
2021/04/09 08:25:08;;;;;;;15.02;6.32;;;10.50;61.50;;;;;;5078388;28;20058;-81
2021/04/09 08:27:35;;;;;;;9.98;5.53;;;10.50;61.50;;;;;;5097036;28;20012;-80
2021/04/09 08:30:03;;;;;;;8.73;5.82;;;10.60;61.40;;;;;;5096916;28;20115;-80
2021/04/09 08:32:32;;;;;;;9.68;4.82;;;10.60;61.40;;;;;;5079189;28;20138;-81
2021/04/09 08:34:59;;;;;;;10.73;5.72;;;10.80;61.40;;;;;;5078601;28;20028;-81
2021/04/09 08:37:25;;;;;;;10.85;5.65;;;10.90;60.40;;;;;;5078793;28;20052;-81
2021/04/09 08:39:52;;;;;;;11.60;5.68;;;10.90;60.10;;;;;;5096735;28;20013;-82
2021/04/09 08:42:18;;;;;;;8.38;5.22;;;11.00;60.00;;;;;;5078551;28;20020;-81
2021/04/09 08:44:44;;;;;;;8.75;5.00;;;11.20;59.90;;;;;;5096849;28;20024;-79
2021/04/09 08:47:12;;;;;;;9.15;5.45;;;11.30;59.60;;;;;;5062052;28;20415;-85
2021/04/09 08:49:37;;;;;;;10.40;6.35;;;11.40;59.10;;;;;;5096618;28;20028;-84
2021/04/09 08:52:05;;;;;;;9.05;5.53;;;11.40;59.10;;;;;;5078244;28;20024;-84
2021/04/09 08:54:33;;;;;;;10.68;5.82;;;11.60;59.20;;;;;;5096626;28;20058;-84
2021/04/09 08:57:01;;;;;;;11.67;5.37;;;11.70;58.20;;;;;;5096482;28;20077;-82
2021/04/09 08:59:44;;;;;;;10.63;5.53;;;11.80;58.10;;;;;;5082277;28;20047;-82
2021/04/09 09:02:27;;;;;;;10.05;5.85;;;12.00;57.80;;;;;;5058444;28;20040;-84
2021/04/09 09:05:00;;;;;;;12.98;5.95;;;12.10;57.40;;;;;;5075894;28;20025;-83
2021/04/09 09:07:51;;;;;;;10.60;5.78;;;12.20;56.90;;;;;;5074636;28;20059;-82
2021/04/09 09:10:20;;;;;;;8.15;5.15;;;12.30;56.00;;;;;;5075686;28;20031;-83
2021/04/09 09:13:15;;;;;;;9.52;5.97;;;12.40;55.60;;;;;;5056222;28;20051;-83
2021/04/09 09:15:43;;;;;;;12.15;6.30;;;12.50;55.40;;;;;;5047764;28;20029;-83
2021/04/09 09:18:24;;;;;;;11.07;5.90;;;12.60;55.40;;;;;;5055977;28;20540;-83
2021/04/09 09:21:05;;;;;;;9.50;5.72;;;12.60;54.10;;;;;;5055801;28;20501;-82
2021/04/09 09:23:46;;;;;;;9.38;5.63;;;12.60;54.50;;;;;;5055961;28;20021;-81
2021/04/09 09:26:31;;;;;;;9.00;5.00;;;12.80;54.70;;;;;;5055925;28;20021;-84
2021/04/09 09:29:15;;;;;;;12.88;6.18;;;13.00;54.70;;;;;;5055556;28;20028;-83
2021/04/09 09:31:47;;;;;;;7.35;4.97;;;13.10;53.30;;;;;;5055113;28;20025;-82
2021/04/09 09:34:22;;;;;;;14.93;4.85;;;13.20;53.40;;;;;;5055191;28;20021;-81
2021/04/09 09:37:15;;;;;;;11.48;4.75;;;13.40;53.60;;;;;;5055460;28;20017;-84
2021/04/09 09:39:48;;;;;;;8.52;4.70;;;13.60;53.10;;;;;;5073142;28;20412;-84
2021/04/09 09:42:20;;;;;;;8.98;4.47;;;13.80;53.20;;;;;;5073780;28;20108;-84
2021/04/09 09:44:56;;;;;;;5.05;3.80;;;13.90;52.80;;;;;;5075178;28;20029;-84
2021/04/09 09:47:28;;;;;;;7.32;4.70;;;13.80;52.70;;;;;;5075148;28;20024;-84
2021/04/09 09:50:03;;;;;;;7.55;4.93;;;13.70;53.40;;;;;;5073820;28;20028;-84
2021/04/09 09:52:45;;;;;;;13.57;5.07;;;13.80;53.30;;;;;;5075123;28;20485;-83
2021/04/09 09:55:15;;;;;;;10.45;4.43;;;14.10;53.30;;;;;;5075063;28;20028;-83
2021/04/09 09:58:02;;;;;;;11.05;4.75;;;14.30;53.20;;;;;;5073984;28;20099;-84
2021/04/09 10:00:38;;;;;;;8.23;4.40;;;14.40;53.20;;;;;;5057649;28;20049;-82
2021/04/09 10:03:36;;;;;;;8.65;4.68;;;14.50;52.90;;;;;;5054652;28;20040;-83
2021/04/09 10:06:11;;;;;;;7.00;4.20;;;14.60;52.60;;;;;;5085198;28;20036;-82
2021/04/09 10:08:38;;;;;;;9.75;4.75;;;14.70;52.30;;;;;;5054861;28;20025;-82
2021/04/09 10:11:14;;;;;;;11.77;5.20;;;14.70;52.30;;;;;;5053497;28;20028;-82
2021/04/09 10:13:41;;;;;;;7.90;4.85;;;14.70;51.20;;;;;;5054956;28;20124;-82
2021/04/09 10:16:18;;;;;;;11.90;4.35;;;14.80;51.20;;;;;;5053387;28;20036;-82
2021/04/09 10:18:51;;;;;;;8.57;5.38;;;14.80;51.20;;;;;;5053282;28;20145;-82
2021/04/09 10:21:30;;;;;;;10.60;4.90;;;14.80;50.70;;;;;;5054532;28;20151;-82
2021/04/09 10:24:05;;;;;;;6.20;4.30;;;14.80;51.10;;;;;;5054411;28;20032;-82
2021/04/09 10:26:31;;;;;;;9.40;5.18;;;15.00;50.90;;;;;;5054614;28;20025;-82
2021/04/09 10:28:56;;;;;;;7.10;4.72;;;15.00;50.00;;;;;;5054455;28;20021;-82
2021/04/09 10:31:23;;;;;;;6.93;4.20;;;15.00;50.70;;;;;;5054395;28;20029;-81
2021/04/09 10:33:50;;;;;;;7.53;4.57;;;15.10;51.30;;;;;;5053277;28;20025;-82
2021/04/09 10:36:17;;;;;;;11.55;4.30;;;15.20;51.40;;;;;;5054749;28;20067;-83
2021/04/09 10:38:44;;;;;;;7.50;4.20;;;15.40;51.00;;;;;;5053159;28;20044;-81
2021/04/09 10:41:32;;;;;;;6.65;3.90;;;15.50;50.20;;;;;;5053385;28;20425;-81
2021/04/09 10:44:11;;;;;;;6.37;3.70;;;15.60;50.30;;;;;;5054208;28;20055;-82
2021/04/09 10:46:42;;;;;;;5.25;3.67;;;15.60;50.60;;;;;;5053946;28;20025;-83
2021/04/09 10:49:10;;;;;;;8.43;3.55;;;15.70;50.50;;;;;;5054172;28;20021;-83
2021/04/09 10:51:50;;;;;;;6.18;3.80;;;15.70;50.50;;;;;;5052773;28;20107;-82
2021/04/09 10:54:22;;;;;;;10.93;5.07;;;15.70;50.20;;;;;;5052727;28;20025;-82
2021/04/09 10:56:58;;;;;;;5.93;3.85;;;15.70;50.00;;;;;;5053991;28;20045;-82
2021/04/09 10:59:30;;;;;;;7.32;4.30;;;15.60;50.00;;;;;;5062168;28;20062;-83
2021/04/09 11:01:57;;;;;;;6.18;3.70;;;15.50;50.50;;;;;;5093530;28;20070;-82
2021/04/09 11:04:24;;;;;;;8.63;3.97;;;15.60;50.50;;;;;;5093582;28;20025;-83
2021/04/09 11:07:04;;;;;;;7.07;4.18;;;15.70;50.20;;;;;;5076038;28;20035;-83
2021/04/09 11:09:42;;;;;;;6.82;4.53;;;15.60;50.30;;;;;;5093967;28;20035;-83
2021/04/09 11:12:22;;;;;;;9.40;4.28;;;15.70;50.10;;;;;;5094456;28;20066;-83
2021/04/09 11:15:07;;;;;;;6.13;4.00;;;15.80;50.20;;;;;;5075569;28;20024;-83
2021/04/09 11:17:33;;;;;;;6.28;3.35;;;15.80;50.10;;;;;;5075814;28;20027;-82
2021/04/09 11:20:01;;;;;;;6.57;3.78;;;15.80;50.00;;;;;;5093876;28;20024;-83
2021/04/09 11:22:29;;;;;;;7.18;3.80;;;15.80;50.00;;;;;;5093880;28;20025;-82
2021/04/09 11:25:03;;;;;;;11.07;3.92;;;15.70;50.00;;;;;;5075275;28;20419;-83
2021/04/09 11:27:33;;;;;;;7.53;3.92;;;15.50;50.10;;;;;;5092721;28;20031;-83
2021/04/09 11:30:13;;;;;;;7.65;3.95;;;15.40;50.60;;;;;;5074704;28;20032;-82
2021/04/09 11:32:52;;;;;;;5.97;3.83;;;15.30;50.80;;;;;;5092854;28;20032;-83
2021/04/09 11:35:20;;;;;;;7.85;4.25;;;15.30;50.90;;;;;;5093117;28;20064;-82
2021/04/09 11:37:49;;;;;;;7.78;3.95;;;15.30;51.00;;;;;;5075770;28;20027;-82
2021/04/09 11:40:17;;;;;;;6.00;4.03;;;15.30;50.60;;;;;;5074715;28;20039;-82
2021/04/09 11:42:43;;;;;;;7.68;4.28;;;15.20;50.70;;;;;;5093591;28;20062;-83
2021/04/09 11:45:14;;;;;;;7.40;4.35;;;15.30;50.00;;;;;;5093438;28;20415;-83
2021/04/09 11:47:42;;;;;;;6.95;4.13;;;15.30;49.90;;;;;;5093422;28;20051;-87
2021/04/09 11:50:25;;;;;;;7.43;4.35;;;15.20;49.70;;;;;;5074940;28;20050;-86
2021/04/09 11:53:02;;;;;;;5.88;4.32;;;15.10;49.70;;;;;;5075434;28;20028;-86
2021/04/09 11:55:34;;;;;;;6.93;4.18;;;14.90;49.70;;;;;;5057906;28;20058;-85
2021/04/09 11:58:00;;;;;;;7.28;4.20;;;14.80;50.20;;;;;;5093043;28;20031;-86
2021/04/09 12:00:29;;;;;;;11.63;4.53;;;14.60;50.30;;;;;;5058294;28;20044;-85
2021/04/09 12:03:01;;;;;;;6.50;3.90;;;14.50;50.90;;;;;;5087134;28;20024;-84
2021/04/09 12:05:34;;;;;;;7.13;4.15;;;14.50;51.40;;;;;;5091861;28;20123;-84
2021/04/09 12:08:00;;;;;;;7.10;3.95;;;14.40;51.70;;;;;;5074967;28;20472;-85
2021/04/09 12:10:29;;;;;;;8.13;3.83;;;14.40;50.80;;;;;;5093105;28;20047;-85
2021/04/09 12:12:55;;;;;;;8.60;4.00;;;14.40;51.10;;;;;;5093115;28;20016;-84
2021/04/09 12:15:22;;;;;;;6.65;3.80;;;14.40;50.90;;;;;;5093085;28;20304;-84
2021/04/09 12:17:49;;;;;;;6.60;3.83;;;14.40;50.90;;;;;;5092859;28;20081;-85
2021/04/09 12:20:20;;;;;;;6.05;3.88;;;14.40;51.20;;;;;;5074949;28;20021;-84
2021/04/09 12:22:47;;;;;;;8.00;4.05;;;14.40;51.30;;;;;;5092981;28;20496;-84
2021/04/09 12:25:14;;;;;;;6.95;3.78;;;14.40;50.90;;;;;;5055332;28;20468;-84
2021/04/09 12:27:42;;;;;;;8.70;4.43;;;14.30;49.40;;;;;;5092595;28;20065;-84
2021/04/09 12:30:10;;;;;;;5.93;3.22;;;14.20;49.90;;;;;;5092758;28;20039;-84
2021/04/09 12:32:36;;;;;;;5.57;3.30;;;14.20;50.90;;;;;;5074310;28;20036;-84
2021/04/09 12:35:03;;;;;;;4.57;3.20;;;14.20;50.80;;;;;;5090025;28;20036;-84
2021/04/09 12:37:29;;;;;;;6.47;3.35;;;14.30;51.70;;;;;;5073535;28;20043;-84
2021/04/09 12:39:55;;;;;;;5.63;3.83;;;14.40;50.90;;;;;;5092487;28;20021;-84
2021/04/09 12:42:21;;;;;;;5.68;3.60;;;14.40;51.20;;;;;;5074791;28;20028;-84
2021/04/09 12:44:53;;;;;;;6.18;3.65;;;14.50;51.30;;;;;;5092613;28;20027;-84
2021/04/09 12:47:20;;;;;;;6.35;3.85;;;14.60;51.30;;;;;;5075715;28;20103;-84
2021/04/09 12:49:46;;;;;;;5.70;3.22;;;14.70;51.10;;;;;;5074255;28;20024;-80
2021/04/09 12:52:12;;;;;;;5.47;3.22;;;14.80;51.20;;;;;;5074775;28;20025;-80
2021/04/09 12:54:38;;;;;;;6.25;3.20;;;14.90;51.40;;;;;;5092804;28;20058;-80
2021/04/09 12:57:05;;;;;;;7.57;3.70;;;14.90;51.40;;;;;;5092841;28;20611;-80